sensor_id;sensor_type;location;lat;lon;timestamp;pressure;altitude;pressure_sealevel;temperature;humidity
51460;BME280;37534;39.772;2.718;2023-06-24T00:01:34;101790.19;;;22.51;100.00
51460;BME280;37534;39.772;2.718;2023-06-24T00:04:00;101794.38;;;22.39;100.00
51460;BME280;37534;39.772;2.718;2023-06-24T00:06:25;101771.13;;;22.17;100.00
51460;BME280;37534;39.772;2.718;2023-06-24T00:08:52;101789.16;;;22.24;100.00
51460;BME280;37534;39.772;2.718;2023-06-24T00:11:18;101783.13;;;22.21;100.00
51460;BME280;37534;39.772;2.718;2023-06-24T00:13:44;101773.91;;;22.14;100.00
51460;BME280;37534;39.772;2.718;2023-06-24T00:16:10;101775.41;;;22.18;100.00
51460;BME280;37534;39.772;2.718;2023-06-24T00:18:37;101779.66;;;22.21;100.00
51460;BME280;37534;39.772;2.718;2023-06-24T00:21:04;101772.63;;;22.21;100.00
51460;BME280;37534;39.772;2.718;2023-06-24T00:23:31;101772.72;;;22.20;100.00
51460;BME280;37534;39.772;2.718;2023-06-24T00:26:00;101765.94;;;22.16;100.00
51460;BME280;37534;39.772;2.718;2023-06-24T00:28:26;101773.75;;;22.17;100.00
51460;BME280;37534;39.772;2.718;2023-06-24T00:30:52;101776.38;;;22.17;100.00
51460;BME280;37534;39.772;2.718;2023-06-24T00:33:18;101772.22;;;22.13;100.00
51460;BME280;37534;39.772;2.718;2023-06-24T00:35:45;101773.25;;;22.11;100.00
51460;BME280;37534;39.772;2.718;2023-06-24T00:38:11;101752.75;;;22.01;100.00
51460;BME280;37534;39.772;2.718;2023-06-24T00:40:37;101763.38;;;22.00;100.00
51460;BME280;37534;39.772;2.718;2023-06-24T00:43:05;101754.53;;;22.01;100.00
51460;BME280;37534;39.772;2.718;2023-06-24T00:45:31;101757.16;;;22.01;100.00
51460;BME280;37534;39.772;2.718;2023-06-24T00:47:58;101753.69;;;22.00;100.00
51460;BME280;37534;39.772;2.718;2023-06-24T00:50:24;101752.19;;;21.96;100.00
51460;BME280;37534;39.772;2.718;2023-06-24T00:52:49;101739.59;;;21.87;100.00
51460;BME280;37534;39.772;2.718;2023-06-24T00:55:16;101738.72;;;21.87;100.00
51460;BME280;37534;39.772;2.718;2023-06-24T00:57:47;101740.50;;;21.86;100.00
51460;BME280;37534;39.772;2.718;2023-06-24T01:00:20;101747.53;;;21.86;100.00
51460;BME280;37534;39.772;2.718;2023-06-24T01:02:47;101748.38;;;21.86;100.00
51460;BME280;37534;39.772;2.718;2023-06-24T01:05:13;101747.72;;;21.82;100.00
51460;BME280;37534;39.772;2.718;2023-06-24T01:07:40;101746.22;;;21.78;100.00
51460;BME280;37534;39.772;2.718;2023-06-24T01:10:07;101739.59;;;21.71;100.00
51460;BME280;37534;39.772;2.718;2023-06-24T01:12:37;101732.81;;;21.67;100.00
51460;BME280;37534;39.772;2.718;2023-06-24T01:15:05;101737.97;;;21.69;100.00
51460;BME280;37534;39.772;2.718;2023-06-24T01:20:45;101732.81;;;21.67;100.00
51460;BME280;37534;39.772;2.718;2023-06-24T01:34:43;101709.72;;;21.58;100.00
51460;BME280;37534;39.772;2.718;2023-06-24T01:37:25;101709.13;;;21.53;100.00
51460;BME280;37534;39.772;2.718;2023-06-24T01:42:23;101704.06;;;21.50;100.00
51460;BME280;37534;39.772;2.718;2023-06-24T01:44:49;101687.84;;;21.41;100.00
51460;BME280;37534;39.772;2.718;2023-06-24T01:47:19;101697.09;;;21.49;100.00
51460;BME280;37534;39.772;2.718;2023-06-24T01:49:47;101682.94;;;21.51;100.00
51460;BME280;37534;39.772;2.718;2023-06-24T01:52:15;101698.81;;;21.50;100.00
51460;BME280;37534;39.772;2.718;2023-06-24T01:54:44;101680.06;;;21.24;100.00
51460;BME280;37534;39.772;2.718;2023-06-24T01:57:11;101694.09;;;21.23;100.00
51460;BME280;37534;39.772;2.718;2023-06-24T01:59:39;101687.69;;;21.13;100.00
51460;BME280;37534;39.772;2.718;2023-06-24T02:02:07;101687.44;;;21.17;100.00
51460;BME280;37534;39.772;2.718;2023-06-24T02:04:34;101688.28;;;21.18;100.00
51460;BME280;37534;39.772;2.718;2023-06-24T02:07:01;101683.88;;;21.18;100.00
51460;BME280;37534;39.772;2.718;2023-06-24T02:09:28;101683.88;;;21.18;100.00
51460;BME280;37534;39.772;2.718;2023-06-24T02:12:01;101673.16;;;21.07;100.00
51460;BME280;37534;39.772;2.718;2023-06-24T02:14:27;101674.16;;;21.04;100.00
51460;BME280;37534;39.772;2.718;2023-06-24T02:16:55;101670.94;;;20.99;100.00
51460;BME280;37534;39.772;2.718;2023-06-24T02:19:29;101678.47;;;21.05;100.00
51460;BME280;37534;39.772;2.718;2023-06-24T02:21:56;101658.25;;;20.92;100.00
51460;BME280;37534;39.772;2.718;2023-06-24T02:24:23;101676.94;;;21.01;100.00
51460;BME280;37534;39.772;2.718;2023-06-24T02:26:50;101676.25;;;20.98;100.00
51460;BME280;37534;39.772;2.718;2023-06-24T02:29:16;101668.47;;;20.96;100.00
51460;BME280;37534;39.772;2.718;2023-06-24T02:31:43;101666.94;;;20.92;100.00
51460;BME280;37534;39.772;2.718;2023-06-24T02:34:08;101670.50;;;20.91;100.00
51460;BME280;37534;39.772;2.718;2023-06-24T02:36:34;101659.50;;;20.84;100.00
51460;BME280;37534;39.772;2.718;2023-06-24T02:39:00;101670.84;;;20.85;100.00
51460;BME280;37534;39.772;2.718;2023-06-24T02:41:26;101662.38;;;20.80;100.00
51460;BME280;37534;39.772;2.718;2023-06-24T02:43:51;101665.75;;;20.82;100.00
51460;BME280;37534;39.772;2.718;2023-06-24T02:46:17;101664.81;;;20.83;100.00
51460;BME280;37534;39.772;2.718;2023-06-24T02:48:45;101664.16;;;20.79;100.00
51460;BME280;37534;39.772;2.718;2023-06-24T02:51:11;101667.28;;;20.86;100.00
51460;BME280;37534;39.772;2.718;2023-06-24T02:53:38;101665.06;;;20.78;100.00
51460;BME280;37534;39.772;2.718;2023-06-24T02:56:06;101659.06;;;20.76;100.00
51460;BME280;37534;39.772;2.718;2023-06-24T02:58:33;101662.72;;;20.74;100.00
51460;BME280;37534;39.772;2.718;2023-06-24T03:01:02;101658.53;;;20.69;100.00
51460;BME280;37534;39.772;2.718;2023-06-24T03:03:32;101662.88;;;20.70;100.00
51460;BME280;37534;39.772;2.718;2023-06-24T03:05:59;101667.75;;;20.77;100.00
51460;BME280;37534;39.772;2.718;2023-06-24T03:08:27;101676.50;;;20.77;100.00
51460;BME280;37534;39.772;2.718;2023-06-24T03:10:57;101673.88;;;20.77;100.00
51460;BME280;37534;39.772;2.718;2023-06-24T03:13:23;101663.88;;;20.68;100.00
51460;BME280;37534;39.772;2.718;2023-06-24T03:15:49;101651.28;;;20.57;100.00
51460;BME280;37534;39.772;2.718;2023-06-24T03:18:16;101661.63;;;20.60;100.00
51460;BME280;37534;39.772;2.718;2023-06-24T03:20:42;101655.97;;;20.52;100.00
51460;BME280;37534;39.772;2.718;2023-06-24T03:23:08;101665.19;;;20.59;100.00
51460;BME280;37534;39.772;2.718;2023-06-24T03:25:34;101662.41;;;20.62;100.00
51460;BME280;37534;39.772;2.718;2023-06-24T03:28:01;101659.16;;;20.57;100.00
51460;BME280;37534;39.772;2.718;2023-06-24T03:30:29;101640.47;;;20.47;100.00
51460;BME280;37534;39.772;2.718;2023-06-24T03:32:55;101659.94;;;20.59;100.00
51460;BME280;37534;39.772;2.718;2023-06-24T03:35:23;101662.34;;;20.64;100.00
51460;BME280;37534;39.772;2.718;2023-06-24T03:37:48;101654.69;;;20.59;100.00
51460;BME280;37534;39.772;2.718;2023-06-24T03:40:14;101662.44;;;20.45;100.00
51460;BME280;37534;39.772;2.718;2023-06-24T03:42:40;101656.91;;;20.33;100.00
51460;BME280;37534;39.772;2.718;2023-06-24T03:45:05;101658.84;;;20.30;100.00
51460;BME280;37534;39.772;2.718;2023-06-24T03:47:31;101672.69;;;20.32;100.00
51460;BME280;37534;39.772;2.718;2023-06-24T03:49:57;101666.00;;;20.26;100.00
51460;BME280;37534;39.772;2.718;2023-06-24T03:52:22;101666.97;;;20.25;100.00
51460;BME280;37534;39.772;2.718;2023-06-24T03:54:48;101671.88;;;20.31;100.00
51460;BME280;37534;39.772;2.718;2023-06-24T03:57:13;101663.25;;;20.29;100.00
51460;BME280;37534;39.772;2.718;2023-06-24T03:59:39;101678.88;;;20.31;100.00
51460;BME280;37534;39.772;2.718;2023-06-24T04:02:05;101675.59;;;20.27;100.00
51460;BME280;37534;39.772;2.718;2023-06-24T04:04:34;101676.66;;;20.23;100.00
51460;BME280;37534;39.772;2.718;2023-06-24T04:07:00;101665.72;;;20.15;100.00
51460;BME280;37534;39.772;2.718;2023-06-24T04:09:26;101664.16;;;20.11;100.00
51460;BME280;37534;39.772;2.718;2023-06-24T04:11:51;101677.19;;;20.12;100.00
51460;BME280;37534;39.772;2.718;2023-06-24T04:14:17;101681.50;;;20.31;100.00
51460;BME280;37534;39.772;2.718;2023-06-24T04:16:42;101686.56;;;20.34;100.00
51460;BME280;37534;39.772;2.718;2023-06-24T04:19:08;101678.19;;;20.27;100.00
51460;BME280;37534;39.772;2.718;2023-06-24T04:21:33;101676.50;;;20.26;100.00
51460;BME280;37534;39.772;2.718;2023-06-24T04:23:59;101664.56;;;20.21;100.00
51460;BME280;37534;39.772;2.718;2023-06-24T04:26:24;101670.19;;;20.13;100.00
51460;BME280;37534;39.772;2.718;2023-06-24T04:28:50;101673.97;;;20.07;100.00
51460;BME280;37534;39.772;2.718;2023-06-24T04:31:15;101680.06;;;20.08;100.00
51460;BME280;37534;39.772;2.718;2023-06-24T04:33:41;101676.50;;;20.09;100.00
51460;BME280;37534;39.772;2.718;2023-06-24T04:36:06;101671.25;;;20.09;100.00
51460;BME280;37534;39.772;2.718;2023-06-24T04:38:32;101662.63;;;20.07;100.00
51460;BME280;37534;39.772;2.718;2023-06-24T04:40:57;101666.91;;;20.09;100.00
51460;BME280;37534;39.772;2.718;2023-06-24T04:43:25;101669.25;;;20.14;100.00
51460;BME280;37534;39.772;2.718;2023-06-24T04:45:52;101667.31;;;20.18;100.00
51460;BME280;37534;39.772;2.718;2023-06-24T04:48:20;101667.09;;;20.22;100.00
51460;BME280;37534;39.772;2.718;2023-06-24T04:50:46;101670.34;;;20.27;100.00
51460;BME280;37534;39.772;2.718;2023-06-24T04:53:11;101669.03;;;20.36;100.00
51460;BME280;37534;39.772;2.718;2023-06-24T04:55:37;101666.13;;;20.41;100.00
51460;BME280;37534;39.772;2.718;2023-06-24T04:58:02;101669.97;;;20.51;100.00
51460;BME280;37534;39.772;2.718;2023-06-24T05:00:28;101672.75;;;20.48;100.00
51460;BME280;37534;39.772;2.718;2023-06-24T05:02:53;101657.72;;;20.51;100.00
51460;BME280;37534;39.772;2.718;2023-06-24T05:05:19;101673.22;;;20.56;100.00
51460;BME280;37534;39.772;2.718;2023-06-24T05:07:45;101668.44;;;20.64;100.00
51460;BME280;37534;39.772;2.718;2023-06-24T05:10:11;101671.16;;;20.63;100.00
51460;BME280;37534;39.772;2.718;2023-06-24T05:12:36;101668.72;;;20.58;100.00
51460;BME280;37534;39.772;2.718;2023-06-24T05:15:02;101672.25;;;20.57;100.00
51460;BME280;37534;39.772;2.718;2023-06-24T05:17:28;101673.13;;;20.58;100.00
51460;BME280;37534;39.772;2.718;2023-06-24T05:19:53;101666.94;;;20.59;100.00
51460;BME280;37534;39.772;2.718;2023-06-24T05:22:19;101678.16;;;20.62;100.00
51460;BME280;37534;39.772;2.718;2023-06-24T05:24:44;101678.22;;;20.61;100.00
51460;BME280;37534;39.772;2.718;2023-06-24T05:27:10;101663.47;;;20.58;100.00
51460;BME280;37534;39.772;2.718;2023-06-24T05:29:35;101676.31;;;20.64;100.00
51460;BME280;37534;39.772;2.718;2023-06-24T05:32:00;101663.97;;;20.66;100.00
51460;BME280;37534;39.772;2.718;2023-06-24T05:34:28;101658.97;;;20.78;100.00
51460;BME280;37534;39.772;2.718;2023-06-24T05:36:54;101670.00;;;21.00;100.00
51460;BME280;37534;39.772;2.718;2023-06-24T05:39:20;101675.34;;;21.31;100.00
51460;BME280;37534;39.772;2.718;2023-06-24T05:41:45;101677.03;;;21.48;100.00
51460;BME280;37534;39.772;2.718;2023-06-24T05:44:13;101678.19;;;21.58;100.00
51460;BME280;37534;39.772;2.718;2023-06-24T05:46:39;101668.53;;;21.58;100.00
51460;BME280;37534;39.772;2.718;2023-06-24T05:49:06;101679.00;;;21.74;100.00
51460;BME280;37534;39.772;2.718;2023-06-24T05:51:31;101672.94;;;21.88;100.00
51460;BME280;37534;39.772;2.718;2023-06-24T05:53:56;101676.00;;;21.96;100.00
51460;BME280;37534;39.772;2.718;2023-06-24T05:56:22;101681.53;;;22.06;100.00
51460;BME280;37534;39.772;2.718;2023-06-24T05:58:48;101669.53;;;22.16;100.00
51460;BME280;37534;39.772;2.718;2023-06-24T06:01:14;101683.03;;;22.40;100.00
51460;BME280;37534;39.772;2.718;2023-06-24T06:03:40;101679.84;;;22.50;100.00
51460;BME280;37534;39.772;2.718;2023-06-24T06:06:06;101685.94;;;22.65;100.00
51460;BME280;37534;39.772;2.718;2023-06-24T06:08:34;101684.44;;;22.75;100.00
51460;BME280;37534;39.772;2.718;2023-06-24T06:11:00;101682.84;;;22.87;100.00
51460;BME280;37534;39.772;2.718;2023-06-24T06:13:29;101686.28;;;23.02;100.00
51460;BME280;37534;39.772;2.718;2023-06-24T06:15:56;101688.91;;;23.16;100.00
51460;BME280;37534;39.772;2.718;2023-06-24T06:18:21;101686.63;;;23.24;100.00
51460;BME280;37534;39.772;2.718;2023-06-24T06:20:47;101678.88;;;23.35;100.00
51460;BME280;37534;39.772;2.718;2023-06-24T06:23:12;101682.97;;;23.54;100.00
51460;BME280;37534;39.772;2.718;2023-06-24T06:25:38;101675.84;;;23.69;100.00
51460;BME280;37534;39.772;2.718;2023-06-24T06:28:04;101672.31;;;23.83;100.00
51460;BME280;37534;39.772;2.718;2023-06-24T06:30:30;101670.44;;;23.98;100.00
51460;BME280;37534;39.772;2.718;2023-06-24T06:32:56;101679.09;;;24.13;100.00
51460;BME280;37534;39.772;2.718;2023-06-24T06:35:21;101669.84;;;24.20;97.95
51460;BME280;37534;39.772;2.718;2023-06-24T06:37:47;101658.84;;;24.26;98.51
51460;BME280;37534;39.772;2.718;2023-06-24T06:40:18;101676.16;;;24.43;99.18
51460;BME280;37534;39.772;2.718;2023-06-24T06:42:43;101674.25;;;24.58;99.41
51460;BME280;37534;39.772;2.718;2023-06-24T06:45:09;101665.28;;;24.73;98.35
51460;BME280;37534;39.772;2.718;2023-06-24T06:47:35;101673.78;;;24.90;94.18
51460;BME280;37534;39.772;2.718;2023-06-24T06:50:00;101669.28;;;25.03;93.13
51460;BME280;37534;39.772;2.718;2023-06-24T06:52:26;101682.13;;;25.20;92.06
51460;BME280;37534;39.772;2.718;2023-06-24T06:54:53;101676.44;;;25.27;88.26
51460;BME280;37534;39.772;2.718;2023-06-24T06:57:19;101676.25;;;25.41;88.14
51460;BME280;37534;39.772;2.718;2023-06-24T06:59:44;101668.47;;;25.51;87.09
51460;BME280;37534;39.772;2.718;2023-06-24T07:02:10;101664.09;;;25.63;82.48
51460;BME280;37534;39.772;2.718;2023-06-24T07:04:35;101679.75;;;25.77;81.22
51460;BME280;37534;39.772;2.718;2023-06-24T07:07:01;101676.31;;;25.88;81.60
51460;BME280;37534;39.772;2.718;2023-06-24T07:09:26;101677.09;;;26.01;80.53
51460;BME280;37534;39.772;2.718;2023-06-24T07:11:52;101668.56;;;26.09;78.92
51460;BME280;37534;39.772;2.718;2023-06-24T07:14:17;101672.69;;;26.24;78.39
51460;BME280;37534;39.772;2.718;2023-06-24T07:16:43;101670.53;;;26.29;77.45
51460;BME280;37534;39.772;2.718;2023-06-24T07:19:08;101670.25;;;26.32;77.05
51460;BME280;37534;39.772;2.718;2023-06-24T07:21:34;101679.88;;;26.45;77.61
51460;BME280;37534;39.772;2.718;2023-06-24T07:23:59;101678.69;;;26.60;76.71
51460;BME280;37534;39.772;2.718;2023-06-24T07:26:24;101678.25;;;26.78;77.38
51460;BME280;37534;39.772;2.718;2023-06-24T07:28:50;101673.16;;;26.86;77.01
51460;BME280;37534;39.772;2.718;2023-06-24T07:31:15;101680.22;;;27.08;77.80
51460;BME280;37534;39.772;2.718;2023-06-24T07:33:41;101680.78;;;27.23;77.98
51460;BME280;37534;39.772;2.718;2023-06-24T07:36:06;101669.34;;;27.34;79.22
51460;BME280;37534;39.772;2.718;2023-06-24T07:38:32;101675.63;;;27.54;81.29
51460;BME280;37534;39.772;2.718;2023-06-24T07:40:57;101681.34;;;27.70;86.58
51460;BME280;37534;39.772;2.718;2023-06-24T07:43:23;101670.94;;;27.78;88.71
51460;BME280;37534;39.772;2.718;2023-06-24T07:45:48;101669.66;;;27.94;88.34
51460;BME280;37534;39.772;2.718;2023-06-24T07:48:14;101668.06;;;28.02;86.02
51460;BME280;37534;39.772;2.718;2023-06-24T07:50:39;101666.09;;;28.04;83.42
51460;BME280;37534;39.772;2.718;2023-06-24T07:53:05;101664.94;;;28.18;83.25
51460;BME280;37534;39.772;2.718;2023-06-24T07:55:31;101667.78;;;28.27;82.10
51460;BME280;37534;39.772;2.718;2023-06-24T07:57:57;101655.72;;;28.22;80.60
51460;BME280;37534;39.772;2.718;2023-06-24T08:00:24;101666.56;;;28.40;78.52
51460;BME280;37534;39.772;2.718;2023-06-24T08:02:50;101670.47;;;28.46;74.73
51460;BME280;37534;39.772;2.718;2023-06-24T08:05:15;101661.03;;;28.53;72.46
51460;BME280;37534;39.772;2.718;2023-06-24T08:07:43;101662.09;;;28.72;69.97
51460;BME280;37534;39.772;2.718;2023-06-24T08:10:09;101646.84;;;28.74;69.69
51460;BME280;37534;39.772;2.718;2023-06-24T08:12:35;101663.09;;;28.90;71.04
51460;BME280;37534;39.772;2.718;2023-06-24T08:15:00;101651.94;;;28.96;70.53
51460;BME280;37534;39.772;2.718;2023-06-24T08:17:26;101660.91;;;29.05;73.92
51460;BME280;37534;39.772;2.718;2023-06-24T08:19:51;101654.72;;;29.05;76.36
51460;BME280;37534;39.772;2.718;2023-06-24T08:22:17;101659.38;;;29.12;75.70
51460;BME280;37534;39.772;2.718;2023-06-24T08:24:42;101652.22;;;29.13;75.60
51460;BME280;37534;39.772;2.718;2023-06-24T08:27:08;101644.25;;;29.13;74.82
51460;BME280;37534;39.772;2.718;2023-06-24T08:29:34;101659.81;;;29.27;73.79
51460;BME280;37534;39.772;2.718;2023-06-24T08:31:59;101653.66;;;29.36;73.23
51460;BME280;37534;39.772;2.718;2023-06-24T08:34:25;101668.38;;;29.41;76.51
51460;BME280;37534;39.772;2.718;2023-06-24T08:36:50;101662.47;;;29.47;76.53
51460;BME280;37534;39.772;2.718;2023-06-24T08:39:17;101659.28;;;29.53;75.97
51460;BME280;37534;39.772;2.718;2023-06-24T08:41:43;101654.22;;;29.50;76.04
51460;BME280;37534;39.772;2.718;2023-06-24T08:44:08;101657.31;;;29.55;76.70
51460;BME280;37534;39.772;2.718;2023-06-24T08:46:34;101663.03;;;29.60;75.83
51460;BME280;37534;39.772;2.718;2023-06-24T08:49:26;101659.81;;;29.56;76.20
51460;BME280;37534;39.772;2.718;2023-06-24T08:52:13;101661.50;;;29.67;75.78
51460;BME280;37534;39.772;2.718;2023-06-24T08:54:40;101659.94;;;29.65;74.69
51460;BME280;37534;39.772;2.718;2023-06-24T08:57:06;101668.50;;;29.58;74.37
51460;BME280;37534;39.772;2.718;2023-06-24T08:59:34;101664.56;;;29.63;74.70
51460;BME280;37534;39.772;2.718;2023-06-24T09:02:00;101660.06;;;29.73;73.93
51460;BME280;37534;39.772;2.718;2023-06-24T09:04:26;101654.19;;;29.69;74.92
51460;BME280;37534;39.772;2.718;2023-06-24T09:06:52;101656.59;;;29.72;74.68
51460;BME280;37534;39.772;2.718;2023-06-24T09:09:19;101660.06;;;29.83;73.64
51460;BME280;37534;39.772;2.718;2023-06-24T09:11:57;101662.03;;;29.81;73.38
51460;BME280;37534;39.772;2.718;2023-06-24T09:14:24;101668.19;;;29.71;72.90
51460;BME280;37534;39.772;2.718;2023-06-24T09:17:00;101659.25;;;29.82;72.26
51460;BME280;37534;39.772;2.718;2023-06-24T09:19:28;101657.56;;;29.91;69.00
51460;BME280;37534;39.772;2.718;2023-06-24T09:22:07;101655.72;;;30.01;69.55
51460;BME280;37534;39.772;2.718;2023-06-24T09:24:34;101656.00;;;29.98;69.95
51460;BME280;37534;39.772;2.718;2023-06-24T09:27:00;101661.31;;;29.98;67.90
51460;BME280;37534;39.772;2.718;2023-06-24T09:29:33;101644.38;;;29.99;67.91
51460;BME280;37534;39.772;2.718;2023-06-24T09:31:59;101644.06;;;30.02;68.81
51460;BME280;37534;39.772;2.718;2023-06-24T09:34:26;101648.56;;;30.02;68.42
51460;BME280;37534;39.772;2.718;2023-06-24T09:36:56;101652.56;;;30.16;69.13
51460;BME280;37534;39.772;2.718;2023-06-24T09:39:22;101648.22;;;30.14;69.46
51460;BME280;37534;39.772;2.718;2023-06-24T09:41:56;101647.66;;;30.21;69.44
51460;BME280;37534;39.772;2.718;2023-06-24T09:44:22;101638.53;;;30.23;68.45
51460;BME280;37534;39.772;2.718;2023-06-24T09:46:47;101635.28;;;30.29;67.42
51460;BME280;37534;39.772;2.718;2023-06-24T09:49:13;101648.28;;;30.42;65.90
51460;BME280;37534;39.772;2.718;2023-06-24T09:51:44;101643.09;;;30.50;65.60
51460;BME280;37534;39.772;2.718;2023-06-24T09:54:11;101647.78;;;30.57;66.06
51460;BME280;37534;39.772;2.718;2023-06-24T09:56:39;101639.94;;;30.55;66.64
51460;BME280;37534;39.772;2.718;2023-06-24T09:59:07;101647.13;;;30.55;66.93
51460;BME280;37534;39.772;2.718;2023-06-24T10:01:36;101638.97;;;30.56;66.52
51460;BME280;37534;39.772;2.718;2023-06-24T10:04:04;101642.53;;;30.47;68.76
51460;BME280;37534;39.772;2.718;2023-06-24T10:06:32;101637.78;;;30.41;67.74
51460;BME280;37534;39.772;2.718;2023-06-24T10:08:59;101644.34;;;30.46;70.31
51460;BME280;37534;39.772;2.718;2023-06-24T10:11:24;101612.59;;;30.35;69.47
51460;BME280;37534;39.772;2.718;2023-06-24T10:13:51;101634.97;;;30.42;67.42
51460;BME280;37534;39.772;2.718;2023-06-24T10:16:17;101639.00;;;30.74;69.03
51460;BME280;37534;39.772;2.718;2023-06-24T10:18:44;101631.06;;;30.92;66.83
51460;BME280;37534;39.772;2.718;2023-06-24T10:21:10;101627.00;;;30.88;65.12
51460;BME280;37534;39.772;2.718;2023-06-24T10:26:28;101633.16;;;30.88;62.04
51460;BME280;37534;39.772;2.718;2023-06-24T10:31:51;101625.66;;;31.02;59.78
51460;BME280;37534;39.772;2.718;2023-06-24T10:34:27;101625.34;;;31.05;60.24
51460;BME280;37534;39.772;2.718;2023-06-24T10:36:59;101626.19;;;31.05;60.62
51460;BME280;37534;39.772;2.718;2023-06-24T10:39:51;101613.63;;;31.16;61.76
51460;BME280;37534;39.772;2.718;2023-06-24T10:42:30;101615.75;;;31.12;60.86
51460;BME280;37534;39.772;2.718;2023-06-24T10:44:58;101613.69;;;31.24;60.47
51460;BME280;37534;39.772;2.718;2023-06-24T10:47:27;101604.56;;;31.08;59.30
51460;BME280;37534;39.772;2.718;2023-06-24T10:49:52;101609.88;;;31.26;59.42
51460;BME280;37534;39.772;2.718;2023-06-24T10:52:19;101610.41;;;31.30;59.93
51460;BME280;37534;39.772;2.718;2023-06-24T10:54:48;101601.69;;;31.20;62.37
51460;BME280;37534;39.772;2.718;2023-06-24T10:57:15;101607.47;;;31.15;62.56
51460;BME280;37534;39.772;2.718;2023-06-24T10:59:47;101602.72;;;31.09;62.31
51460;BME280;37534;39.772;2.718;2023-06-24T11:02:17;101602.91;;;31.07;61.76
51460;BME280;37534;39.772;2.718;2023-06-24T11:04:46;101593.06;;;31.08;60.13
51460;BME280;37534;39.772;2.718;2023-06-24T11:07:12;101601.69;;;31.20;60.13
51460;BME280;37534;39.772;2.718;2023-06-24T11:09:40;101588.16;;;31.21;57.94
51460;BME280;37534;39.772;2.718;2023-06-24T11:12:06;101585.59;;;31.30;54.27
51460;BME280;37534;39.772;2.718;2023-06-24T11:14:33;101599.28;;;31.53;55.27
51460;BME280;37534;39.772;2.718;2023-06-24T11:17:03;101602.19;;;31.68;55.89
51460;BME280;37534;39.772;2.718;2023-06-24T11:19:29;101592.47;;;31.84;53.40
51460;BME280;37534;39.772;2.718;2023-06-24T11:21:59;101595.34;;;31.91;50.51
51460;BME280;37534;39.772;2.718;2023-06-24T11:24:26;101598.03;;;31.99;49.69
51460;BME280;37534;39.772;2.718;2023-06-24T11:26:51;101599.06;;;31.98;47.98
51460;BME280;37534;39.772;2.718;2023-06-24T11:29:16;101591.09;;;32.07;47.52
51460;BME280;37534;39.772;2.718;2023-06-24T11:31:44;101605.38;;;32.24;46.95
51460;BME280;37534;39.772;2.718;2023-06-24T11:34:10;101602.06;;;32.38;44.96
51460;BME280;37534;39.772;2.718;2023-06-24T11:36:36;101598.53;;;32.21;45.32
51460;BME280;37534;39.772;2.718;2023-06-24T11:39:01;101602.53;;;32.25;44.20
51460;BME280;37534;39.772;2.718;2023-06-24T11:41:28;101603.22;;;32.27;43.38
51460;BME280;37534;39.772;2.718;2023-06-24T11:43:53;101602.22;;;32.28;43.92
51460;BME280;37534;39.772;2.718;2023-06-24T11:46:28;101607.56;;;32.28;44.35
51460;BME280;37534;39.772;2.718;2023-06-24T11:49:06;101595.50;;;32.16;43.36
51460;BME280;37534;39.772;2.718;2023-06-24T11:51:32;101607.56;;;32.28;44.75
51460;BME280;37534;39.772;2.718;2023-06-24T11:54:03;101600.22;;;32.30;44.88
51460;BME280;37534;39.772;2.718;2023-06-24T11:56:39;101589.59;;;32.47;45.86
51460;BME280;37534;39.772;2.718;2023-06-24T11:59:05;101597.94;;;32.52;45.59
51460;BME280;37534;39.772;2.718;2023-06-24T12:01:34;101591.00;;;32.67;45.52
51460;BME280;37534;39.772;2.718;2023-06-24T12:04:15;101589.50;;;32.73;45.33
51460;BME280;37534;39.772;2.718;2023-06-24T12:06:41;101584.66;;;32.76;45.93
51460;BME280;37534;39.772;2.718;2023-06-24T12:09:10;101581.31;;;32.66;45.59
51460;BME280;37534;39.772;2.718;2023-06-24T12:11:36;101585.13;;;32.64;47.07
51460;BME280;37534;39.772;2.718;2023-06-24T12:14:02;101578.63;;;32.66;47.47
51460;BME280;37534;39.772;2.718;2023-06-24T12:16:29;101570.47;;;32.84;47.52
51460;BME280;37534;39.772;2.718;2023-06-24T12:18:55;101572.00;;;32.87;46.42
51460;BME280;37534;39.772;2.718;2023-06-24T12:21:20;101583.00;;;32.92;47.77
51460;BME280;37534;39.772;2.718;2023-06-24T12:23:46;101583.00;;;32.92;46.59
51460;BME280;37534;39.772;2.718;2023-06-24T12:26:12;101579.16;;;32.94;46.76
51460;BME280;37534;39.772;2.718;2023-06-24T12:28:38;101582.84;;;32.93;47.36
51460;BME280;37534;39.772;2.718;2023-06-24T12:31:03;101570.47;;;32.84;47.17
51460;BME280;37534;39.772;2.718;2023-06-24T12:33:30;101576.97;;;32.73;47.37
51460;BME280;37534;39.772;2.718;2023-06-24T12:35:56;101564.94;;;32.61;47.28
51460;BME280;37534;39.772;2.718;2023-06-24T12:38:21;101575.00;;;32.84;47.30
51460;BME280;37534;39.772;2.718;2023-06-24T12:40:47;101577.16;;;32.96;47.62
51460;BME280;37534;39.772;2.718;2023-06-24T12:43:13;101577.84;;;32.90;46.83
51460;BME280;37534;39.772;2.718;2023-06-24T12:45:39;101565.44;;;32.81;44.92
51460;BME280;37534;39.772;2.718;2023-06-24T12:48:05;101556.59;;;32.97;45.69
51460;BME280;37534;39.772;2.718;2023-06-24T12:50:30;101565.13;;;33.01;46.97
51460;BME280;37534;39.772;2.718;2023-06-24T12:52:59;101562.63;;;32.83;45.35
51460;BME280;37534;39.772;2.718;2023-06-24T12:55:24;101566.63;;;32.62;44.32
51460;BME280;37534;39.772;2.718;2023-06-24T12:57:49;101561.28;;;32.62;44.79
51460;BME280;37534;39.772;2.718;2023-06-24T13:00:16;101566.97;;;32.75;45.37
51460;BME280;37534;39.772;2.718;2023-06-24T13:02:44;101558.44;;;32.72;45.02
51460;BME280;37534;39.772;2.718;2023-06-24T13:05:10;101557.91;;;32.60;43.26
51460;BME280;37534;39.772;2.718;2023-06-24T13:07:35;101567.13;;;32.74;44.13